sensor_id;sensor_type;location;lat;lon;timestamp;temperature;humidity
55091;DHT22;40985;53.180;5.800;2023-03-14T00:01:57;8.80;99.90
55091;DHT22;40985;53.180;5.800;2023-03-14T00:04:23;8.80;99.90
55091;DHT22;40985;53.180;5.800;2023-03-14T00:06:48;8.90;99.90
55091;DHT22;40985;53.180;5.800;2023-03-14T00:09:15;9.00;99.90
55091;DHT22;40985;53.180;5.800;2023-03-14T00:11:41;9.00;99.90
55091;DHT22;40985;53.180;5.800;2023-03-14T00:14:07;8.90;99.90
55091;DHT22;40985;53.180;5.800;2023-03-14T00:16:33;8.90;99.90
55091;DHT22;40985;53.180;5.800;2023-03-14T00:18:59;9.00;99.90
55091;DHT22;40985;53.180;5.800;2023-03-14T00:21:25;9.00;99.90
55091;DHT22;40985;53.180;5.800;2023-03-14T00:23:51;9.00;99.90
55091;DHT22;40985;53.180;5.800;2023-03-14T00:26:19;9.10;99.90
55091;DHT22;40985;53.180;5.800;2023-03-14T00:28:46;9.10;99.90
55091;DHT22;40985;53.180;5.800;2023-03-14T00:31:14;9.10;99.90
55091;DHT22;40985;53.180;5.800;2023-03-14T00:33:40;9.00;99.90
55091;DHT22;40985;53.180;5.800;2023-03-14T00:36:08;9.00;99.90
55091;DHT22;40985;53.180;5.800;2023-03-14T00:38:35;8.80;99.90
55091;DHT22;40985;53.180;5.800;2023-03-14T00:41:10;8.70;99.90
55091;DHT22;40985;53.180;5.800;2023-03-14T00:43:36;8.50;99.90
55091;DHT22;40985;53.180;5.800;2023-03-14T00:46:02;8.40;99.90
55091;DHT22;40985;53.180;5.800;2023-03-14T00:48:29;8.40;99.90
55091;DHT22;40985;53.180;5.800;2023-03-14T00:50:55;8.30;99.90
55091;DHT22;40985;53.180;5.800;2023-03-14T00:53:20;8.30;99.90
55091;DHT22;40985;53.180;5.800;2023-03-14T00:55:48;8.30;99.90
55091;DHT22;40985;53.180;5.800;2023-03-14T00:58:16;8.30;99.90
55091;DHT22;40985;53.180;5.800;2023-03-14T01:00:42;8.30;99.90
55091;DHT22;40985;53.180;5.800;2023-03-14T01:03:09;8.30;99.90
55091;DHT22;40985;53.180;5.800;2023-03-14T01:05:38;8.40;99.90
55091;DHT22;40985;53.180;5.800;2023-03-14T01:08:05;8.50;99.90
55091;DHT22;40985;53.180;5.800;2023-03-14T01:10:32;8.60;99.90
55091;DHT22;40985;53.180;5.800;2023-03-14T01:12:58;8.60;99.90
55091;DHT22;40985;53.180;5.800;2023-03-14T01:15:23;8.60;99.90
55091;DHT22;40985;53.180;5.800;2023-03-14T01:17:49;8.70;99.90
55091;DHT22;40985;53.180;5.800;2023-03-14T01:20:15;8.70;99.90
55091;DHT22;40985;53.180;5.800;2023-03-14T01:22:42;8.70;99.90
55091;DHT22;40985;53.180;5.800;2023-03-14T01:25:11;8.70;99.90
55091;DHT22;40985;53.180;5.800;2023-03-14T01:27:36;8.80;99.90
55091;DHT22;40985;53.180;5.800;2023-03-14T01:30:03;8.80;99.90
55091;DHT22;40985;53.180;5.800;2023-03-14T01:32:29;8.80;99.90
55091;DHT22;40985;53.180;5.800;2023-03-14T01:34:54;8.80;99.90
55091;DHT22;40985;53.180;5.800;2023-03-14T01:37:20;8.80;99.90
55091;DHT22;40985;53.180;5.800;2023-03-14T01:39:49;8.80;99.90
55091;DHT22;40985;53.180;5.800;2023-03-14T01:42:15;8.70;99.90
55091;DHT22;40985;53.180;5.800;2023-03-14T01:44:53;8.70;99.90
55091;DHT22;40985;53.180;5.800;2023-03-14T01:47:19;8.70;99.90
55091;DHT22;40985;53.180;5.800;2023-03-14T01:49:48;8.70;99.90
55091;DHT22;40985;53.180;5.800;2023-03-14T01:52:23;8.70;99.90
55091;DHT22;40985;53.180;5.800;2023-03-14T01:54:54;8.60;99.90
55091;DHT22;40985;53.180;5.800;2023-03-14T01:57:32;8.50;99.90
55091;DHT22;40985;53.180;5.800;2023-03-14T02:02:37;8.50;99.90
55091;DHT22;40985;53.180;5.800;2023-03-14T02:05:05;8.50;99.90
55091;DHT22;40985;53.180;5.800;2023-03-14T02:07:47;8.50;99.90
55091;DHT22;40985;53.180;5.800;2023-03-14T02:10:16;8.50;99.90
55091;DHT22;40985;53.180;5.800;2023-03-14T02:12:45;8.50;99.90
55091;DHT22;40985;53.180;5.800;2023-03-14T02:15:11;8.50;99.90
55091;DHT22;40985;53.180;5.800;2023-03-14T02:17:37;8.50;99.90
55091;DHT22;40985;53.180;5.800;2023-03-14T02:22:47;8.50;99.90
55091;DHT22;40985;53.180;5.800;2023-03-14T02:27:57;8.40;99.90
55091;DHT22;40985;53.180;5.800;2023-03-14T02:30:26;8.40;99.90
55091;DHT22;40985;53.180;5.800;2023-03-14T02:33:03;8.40;99.90
55091;DHT22;40985;53.180;5.800;2023-03-14T02:35:36;8.40;99.90
55091;DHT22;40985;53.180;5.800;2023-03-14T02:40:28;8.40;99.90
55091;DHT22;40985;53.180;5.800;2023-03-14T02:42:54;8.40;99.90
55091;DHT22;40985;53.180;5.800;2023-03-14T02:47:52;8.30;99.90
55091;DHT22;40985;53.180;5.800;2023-03-14T02:50:22;8.40;99.90
55091;DHT22;40985;53.180;5.800;2023-03-14T02:52:50;8.30;99.90
55091;DHT22;40985;53.180;5.800;2023-03-14T02:55:20;8.20;99.90
55091;DHT22;40985;53.180;5.800;2023-03-14T02:57:46;8.30;99.90
55091;DHT22;40985;53.180;5.800;2023-03-14T03:00:12;8.20;99.90
55091;DHT22;40985;53.180;5.800;2023-03-14T03:02:38;8.20;99.90
55091;DHT22;40985;53.180;5.800;2023-03-14T03:05:03;8.20;99.90
55091;DHT22;40985;53.180;5.800;2023-03-14T03:07:29;8.20;99.90
55091;DHT22;40985;53.180;5.800;2023-03-14T03:09:55;8.10;99.90
55091;DHT22;40985;53.180;5.800;2023-03-14T03:12:21;8.20;99.90
55091;DHT22;40985;53.180;5.800;2023-03-14T03:14:46;8.10;99.90
55091;DHT22;40985;53.180;5.800;2023-03-14T03:17:12;8.10;99.90
55091;DHT22;40985;53.180;5.800;2023-03-14T03:19:38;8.10;99.90
55091;DHT22;40985;53.180;5.800;2023-03-14T03:22:04;8.20;99.90
55091;DHT22;40985;53.180;5.800;2023-03-14T03:24:29;8.10;99.90
55091;DHT22;40985;53.180;5.800;2023-03-14T03:26:55;8.20;99.90
55091;DHT22;40985;53.180;5.800;2023-03-14T03:29:21;8.10;99.90
55091;DHT22;40985;53.180;5.800;2023-03-14T03:31:47;8.10;99.90
55091;DHT22;40985;53.180;5.800;2023-03-14T03:34:13;8.10;99.90
55091;DHT22;40985;53.180;5.800;2023-03-14T03:36:39;8.10;99.90
55091;DHT22;40985;53.180;5.800;2023-03-14T03:39:05;8.10;99.90
55091;DHT22;40985;53.180;5.800;2023-03-14T03:41:31;8.20;99.90
55091;DHT22;40985;53.180;5.800;2023-03-14T03:43:56;8.10;99.90
55091;DHT22;40985;53.180;5.800;2023-03-14T03:46:23;8.20;99.90
55091;DHT22;40985;53.180;5.800;2023-03-14T03:48:49;8.10;99.90
55091;DHT22;40985;53.180;5.800;2023-03-14T03:51:19;8.20;99.90
55091;DHT22;40985;53.180;5.800;2023-03-14T03:53:44;8.10;99.90
55091;DHT22;40985;53.180;5.800;2023-03-14T03:56:10;8.10;99.90
55091;DHT22;40985;53.180;5.800;2023-03-14T03:58:36;8.10;99.90
55091;DHT22;40985;53.180;5.800;2023-03-14T04:01:05;8.10;99.90
55091;DHT22;40985;53.180;5.800;2023-03-14T04:03:32;8.10;99.90
55091;DHT22;40985;53.180;5.800;2023-03-14T04:06:09;8.10;99.90
55091;DHT22;40985;53.180;5.800;2023-03-14T04:08:36;8.10;99.90
55091;DHT22;40985;53.180;5.800;2023-03-14T04:11:02;8.10;99.90
55091;DHT22;40985;53.180;5.800;2023-03-14T04:13:28;8.10;99.90
55091;DHT22;40985;53.180;5.800;2023-03-14T04:15:54;8.20;99.90
55091;DHT22;40985;53.180;5.800;2023-03-14T04:18:21;8.10;99.90
55091;DHT22;40985;53.180;5.800;2023-03-14T04:20:51;8.10;99.90
55091;DHT22;40985;53.180;5.800;2023-03-14T04:23:17;8.10;99.90
55091;DHT22;40985;53.180;5.800;2023-03-14T04:25:43;8.10;99.90
55091;DHT22;40985;53.180;5.800;2023-03-14T04:28:08;8.10;99.90
55091;DHT22;40985;53.180;5.800;2023-03-14T04:30:34;8.10;99.90
55091;DHT22;40985;53.180;5.800;2023-03-14T04:33:00;8.10;99.90
55091;DHT22;40985;53.180;5.800;2023-03-14T04:35:25;7.90;99.90
55091;DHT22;40985;53.180;5.800;2023-03-14T04:37:51;7.90;99.90
55091;DHT22;40985;53.180;5.800;2023-03-14T04:40:17;7.90;99.90
55091;DHT22;40985;53.180;5.800;2023-03-14T04:42:43;7.90;99.90
55091;DHT22;40985;53.180;5.800;2023-03-14T04:45:09;7.90;99.90
55091;DHT22;40985;53.180;5.800;2023-03-14T04:47:35;7.80;99.90
55091;DHT22;40985;53.180;5.800;2023-03-14T04:50:01;7.90;99.90
55091;DHT22;40985;53.180;5.800;2023-03-14T04:52:27;7.90;99.90
55091;DHT22;40985;53.180;5.800;2023-03-14T04:54:52;7.80;99.90
55091;DHT22;40985;53.180;5.800;2023-03-14T04:57:18;7.80;99.90
55091;DHT22;40985;53.180;5.800;2023-03-14T04:59:44;7.80;99.90
55091;DHT22;40985;53.180;5.800;2023-03-14T05:02:10;7.80;99.90
55091;DHT22;40985;53.180;5.800;2023-03-14T05:04:35;7.80;99.90
55091;DHT22;40985;53.180;5.800;2023-03-14T05:07:01;7.80;99.90
55091;DHT22;40985;53.180;5.800;2023-03-14T05:09:27;7.90;99.90
55091;DHT22;40985;53.180;5.800;2023-03-14T05:11:52;7.90;99.90
55091;DHT22;40985;53.180;5.800;2023-03-14T05:14:18;8.00;99.90
55091;DHT22;40985;53.180;5.800;2023-03-14T05:16:44;8.00;99.90
55091;DHT22;40985;53.180;5.800;2023-03-14T05:19:11;7.90;99.90
55091;DHT22;40985;53.180;5.800;2023-03-14T05:21:37;7.90;99.90
55091;DHT22;40985;53.180;5.800;2023-03-14T05:24:02;7.80;99.90
55091;DHT22;40985;53.180;5.800;2023-03-14T05:26:28;7.80;99.90
55091;DHT22;40985;53.180;5.800;2023-03-14T05:28:54;7.90;99.90
55091;DHT22;40985;53.180;5.800;2023-03-14T05:31:20;7.80;99.90
55091;DHT22;40985;53.180;5.800;2023-03-14T05:33:46;7.70;99.90
55091;DHT22;40985;53.180;5.800;2023-03-14T05:36:11;7.70;99.90
55091;DHT22;40985;53.180;5.800;2023-03-14T05:38:37;7.70;99.90
55091;DHT22;40985;53.180;5.800;2023-03-14T05:41:03;7.70;99.90
55091;DHT22;40985;53.180;5.800;2023-03-14T05:43:29;7.80;99.90
55091;DHT22;40985;53.180;5.800;2023-03-14T05:45:54;7.60;99.90
55091;DHT22;40985;53.180;5.800;2023-03-14T05:48:20;7.60;99.90
55091;DHT22;40985;53.180;5.800;2023-03-14T05:50:47;7.20;99.90
55091;DHT22;40985;53.180;5.800;2023-03-14T05:53:13;7.10;99.90
55091;DHT22;40985;53.180;5.800;2023-03-14T05:55:40;6.90;99.90
55091;DHT22;40985;53.180;5.800;2023-03-14T05:58:07;6.80;99.90
55091;DHT22;40985;53.180;5.800;2023-03-14T06:00:32;6.40;99.90
55091;DHT22;40985;53.180;5.800;2023-03-14T06:02:58;6.30;99.90
55091;DHT22;40985;53.180;5.800;2023-03-14T06:05:24;5.90;99.90
55091;DHT22;40985;53.180;5.800;2023-03-14T06:07:49;5.90;99.90
55091;DHT22;40985;53.180;5.800;2023-03-14T06:10:15;5.50;99.90
55091;DHT22;40985;53.180;5.800;2023-03-14T06:12:41;5.60;99.90
55091;DHT22;40985;53.180;5.800;2023-03-14T06:15:07;5.10;99.90
55091;DHT22;40985;53.180;5.800;2023-03-14T06:17:33;5.00;99.90
55091;DHT22;40985;53.180;5.800;2023-03-14T06:19:59;4.60;99.90
55091;DHT22;40985;53.180;5.800;2023-03-14T06:22:27;4.70;99.90
55091;DHT22;40985;53.180;5.800;2023-03-14T06:24:53;4.50;99.90
55091;DHT22;40985;53.180;5.800;2023-03-14T06:27:18;4.30;99.90
55091;DHT22;40985;53.180;5.800;2023-03-14T06:29:44;4.30;99.90
55091;DHT22;40985;53.180;5.800;2023-03-14T06:32:10;4.30;99.90
55091;DHT22;40985;53.180;5.800;2023-03-14T06:34:35;3.90;99.90
55091;DHT22;40985;53.180;5.800;2023-03-14T06:37:01;3.80;99.90
55091;DHT22;40985;53.180;5.800;2023-03-14T06:39:27;4.00;99.90
55091;DHT22;40985;53.180;5.800;2023-03-14T06:41:52;4.00;99.90
55091;DHT22;40985;53.180;5.800;2023-03-14T06:44:18;4.00;99.90
55091;DHT22;40985;53.180;5.800;2023-03-14T06:46:44;3.70;99.90
55091;DHT22;40985;53.180;5.800;2023-03-14T06:49:09;4.00;99.90
55091;DHT22;40985;53.180;5.800;2023-03-14T06:51:35;3.90;99.90
55091;DHT22;40985;53.180;5.800;2023-03-14T06:54:01;3.80;99.90
55091;DHT22;40985;53.180;5.800;2023-03-14T06:56:26;3.70;99.90
55091;DHT22;40985;53.180;5.800;2023-03-14T06:58:52;3.90;99.90
55091;DHT22;40985;53.180;5.800;2023-03-14T07:01:24;3.80;99.90
55091;DHT22;40985;53.180;5.800;2023-03-14T07:03:51;3.80;99.90
55091;DHT22;40985;53.180;5.800;2023-03-14T07:06:16;4.00;99.90
55091;DHT22;40985;53.180;5.800;2023-03-14T07:08:42;3.80;99.90
55091;DHT22;40985;53.180;5.800;2023-03-14T07:11:08;3.80;99.90
55091;DHT22;40985;53.180;5.800;2023-03-14T07:13:37;3.80;99.90
55091;DHT22;40985;53.180;5.800;2023-03-14T07:16:03;3.80;99.90
55091;DHT22;40985;53.180;5.800;2023-03-14T07:18:28;3.90;99.90
55091;DHT22;40985;53.180;5.800;2023-03-14T07:20:54;3.80;99.90
55091;DHT22;40985;53.180;5.800;2023-03-14T07:23:21;4.00;99.90
55091;DHT22;40985;53.180;5.800;2023-03-14T07:25:47;3.90;99.90
55091;DHT22;40985;53.180;5.800;2023-03-14T07:28:12;4.00;99.90
55091;DHT22;40985;53.180;5.800;2023-03-14T07:30:38;4.00;99.90
55091;DHT22;40985;53.180;5.800;2023-03-14T07:33:04;4.10;99.90
55091;DHT22;40985;53.180;5.800;2023-03-14T07:35:29;4.00;99.90
55091;DHT22;40985;53.180;5.800;2023-03-14T07:37:55;4.00;99.90
55091;DHT22;40985;53.180;5.800;2023-03-14T07:40:21;4.00;99.90
55091;DHT22;40985;53.180;5.800;2023-03-14T07:42:46;4.00;99.90
55091;DHT22;40985;53.180;5.800;2023-03-14T07:45:12;4.00;99.90
55091;DHT22;40985;53.180;5.800;2023-03-14T07:47:41;4.00;99.90
55091;DHT22;40985;53.180;5.800;2023-03-14T07:50:07;4.10;99.90
55091;DHT22;40985;53.180;5.800;2023-03-14T07:52:33;4.10;99.90
55091;DHT22;40985;53.180;5.800;2023-03-14T07:54:59;4.20;99.90
55091;DHT22;40985;53.180;5.800;2023-03-14T07:57:25;4.20;99.90
55091;DHT22;40985;53.180;5.800;2023-03-14T07:59:50;4.30;99.90
55091;DHT22;40985;53.180;5.800;2023-03-14T08:02:16;4.30;99.90
55091;DHT22;40985;53.180;5.800;2023-03-14T08:04:43;4.30;99.90
55091;DHT22;40985;53.180;5.800;2023-03-14T08:07:09;4.30;99.90
55091;DHT22;40985;53.180;5.800;2023-03-14T08:09:34;4.30;99.90
55091;DHT22;40985;53.180;5.800;2023-03-14T08:12:00;4.40;99.90
55091;DHT22;40985;53.180;5.800;2023-03-14T08:14:26;4.50;99.90
55091;DHT22;40985;53.180;5.800;2023-03-14T08:16:54;4.40;99.90
55091;DHT22;40985;53.180;5.800;2023-03-14T08:19:20;4.50;99.90
55091;DHT22;40985;53.180;5.800;2023-03-14T08:21:49;4.50;99.90
55091;DHT22;40985;53.180;5.800;2023-03-14T08:24:14;4.60;99.90
55091;DHT22;40985;53.180;5.800;2023-03-14T08:26:40;4.70;99.90
55091;DHT22;40985;53.180;5.800;2023-03-14T08:29:06;4.80;99.90
55091;DHT22;40985;53.180;5.800;2023-03-14T08:31:34;4.90;99.90
55091;DHT22;40985;53.180;5.800;2023-03-14T08:34:01;5.00;99.90
55091;DHT22;40985;53.180;5.800;2023-03-14T08:36:27;5.20;99.90
55091;DHT22;40985;53.180;5.800;2023-03-14T08:38:53;5.30;99.90
55091;DHT22;40985;53.180;5.800;2023-03-14T08:41:19;5.30;99.90
55091;DHT22;40985;53.180;5.800;2023-03-14T08:43:45;5.40;99.90
55091;DHT22;40985;53.180;5.800;2023-03-14T08:46:11;5.30;99.90
55091;DHT22;40985;53.180;5.800;2023-03-14T08:48:36;5.30;99.90
55091;DHT22;40985;53.180;5.800;2023-03-14T08:51:10;5.30;99.90
55091;DHT22;40985;53.180;5.800;2023-03-14T08:53:39;5.40;99.90
55091;DHT22;40985;53.180;5.800;2023-03-14T08:56:06;5.30;99.90
55091;DHT22;40985;53.180;5.800;2023-03-14T08:58:32;5.30;99.90
55091;DHT22;40985;53.180;5.800;2023-03-14T09:00:58;5.20;99.90
55091;DHT22;40985;53.180;5.800;2023-03-14T09:03:24;5.20;99.90
55091;DHT22;40985;53.180;5.800;2023-03-14T09:05:51;5.20;99.90
55091;DHT22;40985;53.180;5.800;2023-03-14T09:08:17;5.20;99.90
55091;DHT22;40985;53.180;5.800;2023-03-14T09:10:43;5.20;99.90
55091;DHT22;40985;53.180;5.800;2023-03-14T09:13:08;5.20;99.90
55091;DHT22;40985;53.180;5.800;2023-03-14T09:15:34;5.30;99.90
55091;DHT22;40985;53.180;5.800;2023-03-14T09:18:00;5.40;99.90
55091;DHT22;40985;53.180;5.800;2023-03-14T09:20:26;5.40;99.90
55091;DHT22;40985;53.180;5.800;2023-03-14T09:22:51;5.40;99.90
55091;DHT22;40985;53.180;5.800;2023-03-14T09:25:17;5.40;99.90
55091;DHT22;40985;53.180;5.800;2023-03-14T09:27:43;5.40;99.90
55091;DHT22;40985;53.180;5.800;2023-03-14T09:30:09;5.40;99.90
55091;DHT22;40985;53.180;5.800;2023-03-14T09:32:35;5.40;99.90
55091;DHT22;40985;53.180;5.800;2023-03-14T09:35:01;5.50;99.90
55091;DHT22;40985;53.180;5.800;2023-03-14T09:37:30;5.60;99.90
55091;DHT22;40985;53.180;5.800;2023-03-14T09:39:55;5.70;99.90
55091;DHT22;40985;53.180;5.800;2023-03-14T09:42:24;5.60;99.90
55091;DHT22;40985;53.180;5.800;2023-03-14T09:44:57;5.50;99.90
55091;DHT22;40985;53.180;5.800;2023-03-14T09:47:25;5.50;99.90
55091;DHT22;40985;53.180;5.800;2023-03-14T09:49:51;5.50;99.90
55091;DHT22;40985;53.180;5.800;2023-03-14T09:52:25;5.50;99.90
55091;DHT22;40985;53.180;5.800;2023-03-14T09:54:56;5.50;99.90
55091;DHT22;40985;53.180;5.800;2023-03-14T09:57:25;5.60;99.90
55091;DHT22;40985;53.180;5.800;2023-03-14T09:59:53;5.60;99.90
55091;DHT22;40985;53.180;5.800;2023-03-14T10:02:34;5.50;99.90
55091;DHT22;40985;53.180;5.800;2023-03-14T10:05:00;5.70;99.90
55091;DHT22;40985;53.180;5.800;2023-03-14T10:07:32;5.60;99.90
55091;DHT22;40985;53.180;5.800;2023-03-14T10:09:59;5.60;99.90
55091;DHT22;40985;53.180;5.800;2023-03-14T10:12:36;5.50;99.90
55091;DHT22;40985;53.180;5.800;2023-03-14T10:15:13;5.70;99.90
55091;DHT22;40985;53.180;5.800;2023-03-14T10:17:50;5.90;99.90
55091;DHT22;40985;53.180;5.800;2023-03-14T10:25:36;5.80;99.90
55091;DHT22;40985;53.180;5.800;2023-03-14T10:28:03;5.70;99.90
55091;DHT22;40985;53.180;5.800;2023-03-14T10:30:44;5.70;99.90
55091;DHT22;40985;53.180;5.800;2023-03-14T10:33:25;5.80;99.90
55091;DHT22;40985;53.180;5.800;2023-03-14T10:36:03;5.90;99.90
55091;DHT22;40985;53.180;5.800;2023-03-14T10:38:34;5.80;99.90
55091;DHT22;40985;53.180;5.800;2023-03-14T10:41:01;5.90;99.90
55091;DHT22;40985;53.180;5.800;2023-03-14T10:43:34;5.80;99.90
55091;DHT22;40985;53.180;5.800;2023-03-14T10:48:39;5.60;99.90
55091;DHT22;40985;53.180;5.800;2023-03-14T10:51:19;5.50;99.90
55091;DHT22;40985;53.180;5.800;2023-03-14T10:54:00;5.60;99.90
55091;DHT22;40985;53.180;5.800;2023-03-14T10:56:33;5.70;99.90
55091;DHT22;40985;53.180;5.800;2023-03-14T10:58:59;5.80;99.90
55091;DHT22;40985;53.180;5.800;2023-03-14T11:01:48;5.80;99.90
55091;DHT22;40985;53.180;5.800;2023-03-14T11:04:43;5.80;99.90
55091;DHT22;40985;53.180;5.800;2023-03-14T11:07:26;5.90;99.90
55091;DHT22;40985;53.180;5.800;2023-03-14T11:15:04;5.90;99.90
55091;DHT22;40985;53.180;5.800;2023-03-14T11:17:38;6.00;99.90
55091;DHT22;40985;53.180;5.800;2023-03-14T11:30:51;6.20;99.90
55091;DHT22;40985;53.180;5.800;2023-03-14T11:33:26;6.50;99.90
55091;DHT22;40985;53.180;5.800;2023-03-14T11:36:08;6.30;99.90
55091;DHT22;40985;53.180;5.800;2023-03-14T11:38:57;6.20;99.90
55091;DHT22;40985;53.180;5.800;2023-03-14T11:41:27;6.20;99.90
55091;DHT22;40985;53.180;5.800;2023-03-14T11:43:59;6.10;99.90
55091;DHT22;40985;53.180;5.800;2023-03-14T11:46:38;6.00;99.90
55091;DHT22;40985;53.180;5.800;2023-03-14T11:51:52;6.30;99.90
55091;DHT22;40985;53.180;5.800;2023-03-14T11:57:01;6.30;99.90
55091;DHT22;40985;53.180;5.800;2023-03-14T12:02:55;6.20;99.90
55091;DHT22;40985;53.180;5.800;2023-03-14T12:05:38;6.30;99.90
55091;DHT22;40985;53.180;5.800;2023-03-14T12:13:14;6.40;99.90
55091;DHT22;40985;53.180;5.800;2023-03-14T12:15:49;6.40;99.90
55091;DHT22;40985;53.180;5.800;2023-03-14T12:18:27;6.30;99.90
55091;DHT22;40985;53.180;5.800;2023-03-14T12:21:00;6.10;99.90
55091;DHT22;40985;53.180;5.800;2023-03-14T12:23:28;6.20;99.90
55091;DHT22;40985;53.180;5.800;2023-03-14T12:28:51;6.00;99.90
55091;DHT22;40985;53.180;5.800;2023-03-14T12:34:25;6.10;99.90
55091;DHT22;40985;53.180;5.800;2023-03-14T12:36:53;6.50;99.90
55091;DHT22;40985;53.180;5.800;2023-03-14T12:47:45;6.50;99.90
55091;DHT22;40985;53.180;5.800;2023-03-14T12:50:44;6.50;99.90
55091;DHT22;40985;53.180;5.800;2023-03-14T13:01:54;6.30;99.90
55091;DHT22;40985;53.180;5.800;2023-03-14T13:04:31;6.20;99.90
55091;DHT22;40985;53.180;5.800;2023-03-14T13:07:00;6.50;99.90
55091;DHT22;40985;53.180;5.800;2023-03-14T13:12:09;6.30;99.90
55091;DHT22;40985;53.180;5.800;2023-03-14T13:14:35;6.30;99.90
55091;DHT22;40985;53.180;5.800;2023-03-14T13:17:02;6.40;99.90
55091;DHT22;40985;53.180;5.800;2023-03-14T13:19:29;6.40;99.90
55091;DHT22;40985;53.180;5.800;2023-03-14T13:22:05;6.80;99.90
55091;DHT22;40985;53.180;5.800;2023-03-14T13:24:33;6.80;99.90
55091;DHT22;40985;53.180;5.800;2023-03-14T13:27:00;6.90;99.90
55091;DHT22;40985;53.180;5.800;2023-03-14T13:29:28;7.00;99.90
55091;DHT22;40985;53.180;5.800;2023-03-14T13:31:59;6.80;99.90
55091;DHT22;40985;53.180;5.800;2023-03-14T13:34:32;6.50;99.90
55091;DHT22;40985;53.180;5.800;2023-03-14T13:36:59;6.20;99.90
55091;DHT22;40985;53.180;5.800;2023-03-14T13:39:27;6.40;99.90
55091;DHT22;40985;53.180;5.800;2023-03-14T13:41:57;6.50;99.90
55091;DHT22;40985;53.180;5.800;2023-03-14T13:44:36;6.40;99.90
55091;DHT22;40985;53.180;5.800;2023-03-14T13:47:04;6.50;99.90
55091;DHT22;40985;53.180;5.800;2023-03-14T13:49:32;6.50;99.90
55091;DHT22;40985;53.180;5.800;2023-03-14T13:52:01;6.20;99.90
55091;DHT22;40985;53.180;5.800;2023-03-14T13:54:27;6.00;99.90
55091;DHT22;40985;53.180;5.800;2023-03-14T13:57:01;6.10;99.90
55091;DHT22;40985;53.180;5.800;2023-03-14T13:59:32;6.10;99.90
55091;DHT22;40985;53.180;5.800;2023-03-14T14:02:00;6.40;99.90
55091;DHT22;40985;53.180;5.800;2023-03-14T14:04:29;6.50;99.90
55091;DHT22;40985;53.180;5.800;2023-03-14T14:06:59;6.60;99.90
55091;DHT22;40985;53.180;5.800;2023-03-14T14:16:58;6.80;99.90
55091;DHT22;40985;53.180;5.800;2023-03-14T14:19:27;6.70;99.90
55091;DHT22;40985;53.180;5.800;2023-03-14T14:21:54;6.60;99.90
55091;DHT22;40985;53.180;5.800;2023-03-14T14:24:22;6.50;99.90
55091;DHT22;40985;53.180;5.800;2023-03-14T14:26:59;6.50;99.90
55091;DHT22;40985;53.180;5.800;2023-03-14T14:29:31;6.00;99.90
55091;DHT22;40985;53.180;5.800;2023-03-14T14:34:59;5.80;99.90
55091;DHT22;40985;53.180;5.800;2023-03-14T14:37:33;6.10;99.90
55091;DHT22;40985;53.180;5.800;2023-03-14T14:40:07;6.00;99.90
55091;DHT22;40985;53.180;5.800;2023-03-14T14:42:33;6.30;99.90
55091;DHT22;40985;53.180;5.800;2023-03-14T14:44:59;6.30;99.90
55091;DHT22;40985;53.180;5.800;2023-03-14T14:47:28;6.00;99.90
55091;DHT22;40985;53.180;5.800;2023-03-14T14:49:58;6.00;99.90
55091;DHT22;40985;53.180;5.800;2023-03-14T14:52:40;6.00;99.90
55091;DHT22;40985;53.180;5.800;2023-03-14T14:55:17;6.00;99.90
55091;DHT22;40985;53.180;5.800;2023-03-14T14:57:52;6.00;99.90
55091;DHT22;40985;53.180;5.800;2023-03-14T15:00:23;5.90;99.90
55091;DHT22;40985;53.180;5.800;2023-03-14T15:02:51;6.00;99.90
55091;DHT22;40985;53.180;5.800;2023-03-14T15:05:20;6.10;99.90
55091;DHT22;40985;53.180;5.800;2023-03-14T15:07:49;6.20;99.90
55091;DHT22;40985;53.180;5.800;2023-03-14T15:10:17;6.30;99.90
55091;DHT22;40985;53.180;5.800;2023-03-14T15:12:44;6.00;99.90
55091;DHT22;40985;53.180;5.800;2023-03-14T15:15:11;6.00;99.90
55091;DHT22;40985;53.180;5.800;2023-03-14T15:17:37;5.80;99.90
55091;DHT22;40985;53.180;5.800;2023-03-14T15:20:06;5.80;99.90
55091;DHT22;40985;53.180;5.800;2023-03-14T15:22:35;5.50;99.90
55091;DHT22;40985;53.180;5.800;2023-03-14T15:25:00;5.00;99.90
55091;DHT22;40985;53.180;5.800;2023-03-14T15:27:28;4.80;99.90
55091;DHT22;40985;53.180;5.800;2023-03-14T15:29:56;4.80;99.90
55091;DHT22;40985;53.180;5.800;2023-03-14T15:32:22;4.70;99.90
55091;DHT22;40985;53.180;5.800;2023-03-14T15:34:47;4.70;99.90
55091;DHT22;40985;53.180;5.800;2023-03-14T15:37:15;4.60;99.90
55091;DHT22;40985;53.180;5.800;2023-03-14T15:39:43;4.70;99.90
55091;DHT22;40985;53.180;5.800;2023-03-14T15:42:09;4.80;99.90
55091;DHT22;40985;53.180;5.800;2023-03-14T15:44:35;4.90;99.90
55091;DHT22;40985;53.180;5.800;2023-03-14T15:47:01;5.00;99.90
55091;DHT22;40985;53.180;5.800;2023-03-14T15:49:27;5.10;99.90
55091;DHT22;40985;53.180;5.800;2023-03-14T15:51:53;5.30;99.90
55091;DHT22;40985;53.180;5.800;2023-03-14T15:54:19;5.30;99.90
55091;DHT22;40985;53.180;5.800;2023-03-14T15:56:44;5.20;99.90
55091;DHT22;40985;53.180;5.800;2023-03-14T15:59:10;5.30;99.90
55091;DHT22;40985;53.180;5.800;2023-03-14T16:01:36;5.30;99.90
55091;DHT22;40985;53.180;5.800;2023-03-14T16:04:01;5.30;99.90
55091;DHT22;40985;53.180;5.800;2023-03-14T16:06:28;5.30;99.90
55091;DHT22;40985;53.180;5.800;2023-03-14T16:08:53;5.40;99.90
55091;DHT22;40985;53.180;5.800;2023-03-14T16:11:19;5.40;99.90
55091;DHT22;40985;53.180;5.800;2023-03-14T16:13:46;5.30;99.90
55091;DHT22;40985;53.180;5.800;2023-03-14T16:16:11;5.30;99.90
55091;DHT22;40985;53.180;5.800;2023-03-14T16:18:38;5.40;99.90
55091;DHT22;40985;53.180;5.800;2023-03-14T16:21:07;5.30;99.90
55091;DHT22;40985;53.180;5.800;2023-03-14T16:23:35;5.40;99.90
55091;DHT22;40985;53.180;5.800;2023-03-14T16:26:05;5.40;99.90
55091;DHT22;40985;53.180;5.800;2023-03-14T16:28:32;5.50;99.90
55091;DHT22;40985;53.180;5.800;2023-03-14T16:31:07;5.50;99.90
55091;DHT22;40985;53.180;5.800;2023-03-14T16:33:34;5.30;99.90
55091;DHT22;40985;53.180;5.800;2023-03-14T16:36:02;5.20;99.90
55091;DHT22;40985;53.180;5.800;2023-03-14T16:38:33;5.20;99.90
55091;DHT22;40985;53.180;5.800;2023-03-14T16:41:09;5.10;99.90
55091;DHT22;40985;53.180;5.800;2023-03-14T16:43:35;5.20;99.90
55091;DHT22;40985;53.180;5.800;2023-03-14T16:46:02;5.20;99.90
55091;DHT22;40985;53.180;5.800;2023-03-14T16:48:29;5.10;99.90
55091;DHT22;40985;53.180;5.800;2023-03-14T16:50:55;5.10;99.90
55091;DHT22;40985;53.180;5.800;2023-03-14T16:53:22;4.90;99.90
55091;DHT22;40985;53.180;5.800;2023-03-14T16:55:49;4.80;99.90
55091;DHT22;40985;53.180;5.800;2023-03-14T16:58:15;4.70;99.90
55091;DHT22;40985;53.180;5.800;2023-03-14T17:00:43;4.60;99.90
55091;DHT22;40985;53.180;5.800;2023-03-14T17:03:08;4.60;99.90
55091;DHT22;40985;53.180;5.800;2023-03-14T17:05:36;4.50;99.90
55091;DHT22;40985;53.180;5.800;2023-03-14T17:08:02;4.40;99.90
55091;DHT22;40985;53.180;5.800;2023-03-14T17:10:28;4.30;99.90
55091;DHT22;40985;53.180;5.800;2023-03-14T17:12:54;4.20;99.90
55091;DHT22;40985;53.180;5.800;2023-03-14T17:15:19;4.10;99.90
55091;DHT22;40985;53.180;5.800;2023-03-14T17:17:45;4.00;99.90